Time;durP1;ratioP1;P1;durP2;ratioP2;P2;SDS_P1;SDS_P2;PMS_P1;PMS_P2;Temp;Humidity;BMP_temperature;BMP_pressure;BME280_temperature;BME280_humidity;BME280_pressure;Samples;Min_cycle;Max_cycle;Signal;HPM_P1;HPM_P2
2022/01/02 00:01:30;;;;;;;0.32;0.32;;;6.20;91.20;;;;;;4992478;28;20027;-75
2022/01/02 00:04:01;;;;;;;0.20;0.20;;;6.20;91.20;;;;;;4992433;28;20033;-75
2022/01/02 00:06:31;;;;;;;0.28;0.28;;;6.30;91.50;;;;;;4974868;28;20118;-75
2022/01/02 00:09:05;;;;;;;0.20;0.20;;;6.40;90.70;;;;;;4992234;28;20038;-76
2022/01/02 00:11:32;;;;;;;0.20;0.20;;;6.70;90.80;;;;;;4975773;28;20437;-76
2022/01/02 00:14:08;;;;;;;0.20;0.20;;;7.00;90.30;;;;;;4995144;28;20517;-75
2022/01/02 00:16:36;;;;;;;0.20;0.20;;;7.20;90.20;;;;;;4995955;28;20023;-75
2022/01/02 00:19:08;;;;;;;0.30;0.30;;;7.30;90.30;;;;;;4996093;28;20027;-76
2022/01/02 00:21:41;;;;;;;0.20;0.20;;;7.30;90.10;;;;;;4994864;28;20022;-75
2022/01/02 00:24:12;;;;;;;0.30;0.30;;;7.60;89.90;;;;;;4996086;28;20462;-76
2022/01/02 00:26:44;;;;;;;0.20;0.20;;;7.60;89.40;;;;;;4994617;28;20073;-76
2022/01/02 00:29:10;;;;;;;;;;;7.60;88.30;;;;;;4996401;28;20035;-75
2022/01/02 00:31:36;;;;;;;0.20;0.20;;;7.30;86.50;;;;;;4996074;28;19941;-75
2022/01/02 00:34:04;;;;;;;0.20;0.20;;;7.00;88.10;;;;;;4994562;28;20073;-75
2022/01/02 00:36:30;;;;;;;0.32;0.32;;;6.90;89.30;;;;;;4995630;28;20085;-76
2022/01/02 00:38:56;;;;;;;0.20;0.20;;;6.90;89.40;;;;;;4995712;28;20426;-75
2022/01/02 00:41:48;;;;;;;1.50;1.40;;;6.90;90.00;;;;;;4994416;28;20033;-75
2022/01/02 00:44:19;;;;;;;0.20;0.20;;;6.80;90.10;;;;;;5010760;28;20105;-76
2022/01/02 00:46:53;;;;;;;0.30;0.30;;;6.80;89.30;;;;;;4994152;28;20038;-75
2022/01/02 00:49:24;;;;;;;0.20;0.20;;;6.80;89.90;;;;;;4994224;28;20034;-76
2022/01/02 00:52:04;;;;;;;0.20;0.20;;;7.00;90.00;;;;;;4994424;28;20026;-75
2022/01/02 00:54:32;;;;;;;0.20;0.20;;;7.10;88.50;;;;;;4994281;28;20062;-75
2022/01/02 00:57:04;;;;;;;0.20;0.20;;;7.00;89.30;;;;;;4995173;28;20034;-75
2022/01/02 00:59:45;;;;;;;;;;;6.90;89.50;;;;;;4978248;28;20069;-75
2022/01/02 01:02:19;;;;;;;0.20;0.20;;;6.90;88.70;;;;;;5010560;28;19913;-75
2022/01/02 01:04:47;;;;;;;0.20;0.20;;;6.80;88.70;;;;;;4994007;28;20498;-75
2022/01/02 01:07:14;;;;;;;0.30;0.30;;;6.60;89.00;;;;;;4993606;28;20038;-76
2022/01/02 01:09:40;;;;;;;0.45;0.45;;;6.30;90.00;;;;;;4993784;28;20049;-75
2022/01/02 01:12:06;;;;;;;0.30;0.30;;;5.90;90.70;;;;;;4995161;28;20027;-75
2022/01/02 01:14:32;;;;;;;0.20;0.20;;;5.70;91.60;;;;;;4995121;28;20030;-75
2022/01/02 01:16:58;;;;;;;0.20;0.20;;;5.60;92.60;;;;;;4994900;28;20023;-75
2022/01/02 01:19:25;;;;;;;0.30;0.30;;;5.80;92.50;;;;;;4994994;28;20023;-76
2022/01/02 01:21:51;;;;;;;0.40;0.40;;;6.00;91.80;;;;;;4993637;28;20026;-75
2022/01/02 01:24:17;;;;;;;0.38;0.38;;;5.90;91.80;;;;;;4992757;28;20113;-76
2022/01/02 01:26:46;;;;;;;0.20;0.20;;;5.70;91.50;;;;;;4994783;28;20421;-75
2022/01/02 01:29:12;;;;;;;0.20;0.20;;;5.70;91.50;;;;;;4995078;28;20027;-75
2022/01/02 01:31:37;;;;;;;0.30;0.30;;;5.90;91.90;;;;;;4977350;28;20126;-76
2022/01/02 01:34:03;;;;;;;0.20;0.20;;;5.90;91.10;;;;;;4994756;28;20505;-75
2022/01/02 01:36:29;;;;;;;0.20;0.20;;;6.00;91.30;;;;;;4994496;28;20030;-75
2022/01/02 01:38:54;;;;;;;0.30;0.30;;;6.10;91.30;;;;;;4977203;28;20022;-76
2022/01/02 01:41:30;;;;;;;0.20;0.20;;;6.20;90.90;;;;;;4994643;28;20022;-75
2022/01/02 01:46:38;;;;;;;0.20;0.20;;;6.30;90.90;;;;;;4993104;28;20036;-75
2022/01/02 01:49:19;;;;;;;2.00;1.85;;;6.40;90.50;;;;;;4993266;28;20052;-76
2022/01/02 01:51:45;;;;;;;0.30;0.30;;;6.30;90.60;;;;;;4993310;28;20026;-76
2022/01/02 01:54:11;;;;;;;0.30;0.30;;;6.20;90.80;;;;;;4993082;28;20034;-75
2022/01/02 01:56:38;;;;;;;0.30;0.30;;;5.80;91.00;;;;;;4994090;28;20069;-75
2022/01/02 01:59:05;;;;;;;0.30;0.30;;;5.80;91.80;;;;;;4994134;28;20023;-75
2022/01/02 02:01:32;;;;;;;0.30;0.30;;;5.80;92.20;;;;;;4994124;28;20049;-75
2022/01/02 02:03:58;;;;;;;0.30;0.30;;;5.80;91.60;;;;;;4994386;28;20022;-75
2022/01/02 02:06:24;;;;;;;0.22;0.22;;;5.70;92.40;;;;;;4993962;28;20046;-75
2022/01/02 02:08:53;;;;;;;0.32;0.32;;;5.50;92.70;;;;;;4993857;28;20089;-75
2022/01/02 02:11:23;;;;;;;0.30;0.30;;;5.50;93.00;;;;;;4992893;28;20033;-75
2022/01/02 02:13:49;;;;;;;0.30;0.30;;;5.60;93.20;;;;;;4993976;28;20026;-75
2022/01/02 02:16:15;;;;;;;0.20;0.20;;;5.70;93.20;;;;;;4993856;28;20030;-76
2022/01/02 02:18:41;;;;;;;0.30;0.30;;;5.70;93.20;;;;;;4993853;28;20041;-76
2022/01/02 02:21:07;;;;;;;0.30;0.30;;;5.70;92.90;;;;;;4993918;28;20031;-76
2022/01/02 02:23:33;;;;;;;0.20;0.20;;;5.60;92.70;;;;;;4992611;28;20110;-75
2022/01/02 02:25:58;;;;;;;0.45;0.40;;;5.50;92.00;;;;;;4993661;28;20030;-75
2022/01/02 02:28:27;;;;;;;0.30;0.30;;;5.60;91.50;;;;;;4992430;28;20419;-75
2022/01/02 02:30:54;;;;;;;0.63;0.60;;;5.80;90.80;;;;;;4992444;28;20029;-75
2022/01/02 02:33:20;;;;;;;0.35;0.35;;;5.90;90.00;;;;;;4992431;28;20490;-76
2022/01/02 02:35:48;;;;;;;0.30;0.30;;;5.80;90.50;;;;;;4992001;28;20070;-75
2022/01/02 02:38:17;;;;;;;0.30;0.30;;;5.90;90.50;;;;;;4992305;28;20514;-76
2022/01/02 02:40:43;;;;;;;0.20;0.20;;;5.90;90.90;;;;;;4992385;28;20521;-76
2022/01/02 02:43:31;;;;;;;0.20;0.20;;;5.90;90.80;;;;;;4993462;28;20027;-75
2022/01/02 02:51:39;;;;;;;0.20;0.20;;;5.70;91.20;;;;;;4991937;28;20026;-75
2022/01/02 02:54:07;;;;;;;0.20;0.20;;;5.80;91.50;;;;;;4993416;28;20045;-76
2022/01/02 02:59:30;;;;;;;0.20;0.20;;;5.90;91.30;;;;;;4988240;28;20045;-75
2022/01/02 03:01:57;;;;;;;0.25;0.25;;;6.00;91.30;;;;;;4991980;28;20022;-76
2022/01/02 03:04:24;;;;;;;0.30;0.30;;;6.10;90.80;;;;;;4993139;28;20057;-75
2022/01/02 03:06:50;;;;;;;0.30;0.30;;;6.20;90.60;;;;;;4975507;28;20517;-75
2022/01/02 03:09:25;;;;;;;0.28;0.28;;;6.20;90.50;;;;;;4993206;28;20502;-76
2022/01/02 03:11:51;;;;;;;0.20;0.20;;;6.20;90.60;;;;;;4975599;28;20026;-75
2022/01/02 03:14:16;;;;;;;0.20;0.20;;;6.20;90.40;;;;;;4992995;28;20037;-75
2022/01/02 03:16:42;;;;;;;0.20;0.20;;;6.30;90.30;;;;;;4992788;28;20418;-75
2022/01/02 03:19:08;;;;;;;0.20;0.20;;;6.30;90.00;;;;;;4991696;28;20117;-75
2022/01/02 03:21:34;;;;;;;0.20;0.20;;;6.40;90.00;;;;;;4992842;28;20027;-75
2022/01/02 03:24:00;;;;;;;0.20;0.20;;;6.40;90.00;;;;;;4992935;28;20030;-75
2022/01/02 03:26:25;;;;;;;0.20;0.20;;;6.60;89.70;;;;;;4992721;28;20029;-76
2022/01/02 03:28:51;;;;;;;0.20;0.20;;;6.40;89.10;;;;;;4992617;28;20018;-76
2022/01/02 03:31:17;;;;;;;0.20;0.20;;;6.30;89.70;;;;;;4991569;28;20520;-76
2022/01/02 03:33:43;;;;;;;0.15;0.15;;;6.40;89.30;;;;;;4991472;28;20022;-76
2022/01/02 03:36:09;;;;;;;0.22;0.22;;;6.30;89.70;;;;;;4991341;28;20034;-76
2022/01/02 03:38:35;;;;;;;0.30;0.30;;;6.30;89.10;;;;;;4991420;28;20027;-76
2022/01/02 03:41:01;;;;;;;0.20;0.20;;;6.20;89.10;;;;;;4991397;28;20029;-76
2022/01/02 03:43:26;;;;;;;0.20;0.20;;;6.20;89.40;;;;;;4992590;28;20030;-75
2022/01/02 03:45:52;;;;;;;0.20;0.20;;;6.20;88.20;;;;;;4992538;28;20410;-76
2022/01/02 03:48:18;;;;;;;0.20;0.20;;;6.30;87.30;;;;;;4979168;28;20240;-76
2022/01/02 03:50:44;;;;;;;0.20;0.20;;;6.40;86.50;;;;;;4996546;28;20029;-76
2022/01/02 03:53:09;;;;;;;0.20;0.20;;;6.50;85.80;;;;;;4996642;28;20026;-75
2022/01/02 03:55:35;;;;;;;0.20;0.20;;;6.30;87.00;;;;;;4996576;28;20026;-76
2022/01/02 03:58:01;;;;;;;0.30;0.30;;;6.30;87.50;;;;;;4996413;28;20069;-75
2022/01/02 04:00:27;;;;;;;0.30;0.30;;;6.30;86.40;;;;;;4995120;28;20030;-75
2022/01/02 04:02:53;;;;;;;0.20;0.20;;;6.40;86.50;;;;;;4996624;28;20022;-75
2022/01/02 04:05:19;;;;;;;0.20;0.20;;;6.50;85.80;;;;;;4995053;28;20088;-75
2022/01/02 04:07:46;;;;;;;0.25;0.25;;;6.50;85.40;;;;;;4978573;28;20077;-75
2022/01/02 04:10:15;;;;;;;0.20;0.20;;;6.40;84.70;;;;;;4994930;28;20045;-76
2022/01/02 04:12:42;;;;;;;0.20;0.20;;;6.50;85.20;;;;;;4996218;28;20023;-76
2022/01/02 04:15:10;;;;;;;0.20;0.20;;;6.50;85.60;;;;;;4994933;28;20027;-75
2022/01/02 04:17:38;;;;;;;0.20;0.20;;;6.30;86.10;;;;;;4994871;28;20026;-75
2022/01/02 04:20:06;;;;;;;0.20;0.20;;;6.40;86.50;;;;;;4995968;28;20073;-75
2022/01/02 04:22:32;;;;;;;0.20;0.20;;;6.30;86.40;;;;;;4995045;28;20018;-76
2022/01/02 04:24:58;;;;;;;0.30;0.30;;;6.10;87.20;;;;;;4996003;28;20026;-75
2022/01/02 04:27:24;;;;;;;0.20;0.20;;;6.10;87.10;;;;;;4994585;28;20390;-75
2022/01/02 04:29:51;;;;;;;0.40;0.40;;;6.20;86.80;;;;;;4994575;28;20038;-75
2022/01/02 04:32:17;;;;;;;0.20;0.20;;;6.20;86.60;;;;;;4994784;28;20398;-75
2022/01/02 04:34:42;;;;;;;0.38;0.38;;;6.10;86.80;;;;;;4994652;28;20022;-75
2022/01/02 04:37:10;;;;;;;0.20;0.20;;;6.10;86.80;;;;;;4995636;28;20038;-75
2022/01/02 04:39:36;;;;;;;0.20;0.20;;;6.10;87.00;;;;;;4978076;28;20074;-75
2022/01/02 04:42:02;;;;;;;0.55;0.55;;;6.00;86.90;;;;;;4995599;28;20105;-75
2022/01/02 04:44:28;;;;;;;0.65;0.28;;;6.00;87.60;;;;;;4994493;28;20022;-75
2022/01/02 04:46:54;;;;;;;0.20;0.20;;;6.00;87.30;;;;;;4995481;28;20029;-75
2022/01/02 04:49:20;;;;;;;0.25;0.25;;;6.00;87.80;;;;;;4994262;28;20042;-76
2022/01/02 04:51:46;;;;;;;0.20;0.20;;;6.00;88.70;;;;;;4995545;28;20030;-75
2022/01/02 04:54:12;;;;;;;0.20;0.20;;;5.90;89.40;;;;;;4994163;28;20058;-75
2022/01/02 04:56:38;;;;;;;0.20;0.20;;;5.90;89.70;;;;;;4993920;28;20030;-75
2022/01/02 04:59:03;;;;;;;0.55;0.55;;;5.80;89.30;;;;;;4992688;28;20026;-75
2022/01/02 05:01:29;;;;;;;0.20;0.20;;;5.70;89.30;;;;;;4995306;28;20474;-76
2022/01/02 05:03:55;;;;;;;0.20;0.20;;;5.60;89.00;;;;;;4995377;28;20023;-76
2022/01/02 05:06:21;;;;;;;0.30;0.30;;;5.60;88.60;;;;;;4995157;28;20026;-75
2022/01/02 05:08:46;;;;;;;0.25;0.25;;;5.70;88.10;;;;;;4977591;28;20446;-75
2022/01/02 05:11:13;;;;;;;0.30;0.30;;;5.80;87.20;;;;;;4995277;28;20421;-75
2022/01/02 05:13:40;;;;;;;0.20;0.20;;;5.90;86.60;;;;;;4995288;28;20537;-76
2022/01/02 05:16:05;;;;;;;0.30;0.30;;;5.90;86.10;;;;;;4993830;28;20031;-75
2022/01/02 05:18:31;;;;;;;0.20;0.20;;;6.00;85.80;;;;;;4993592;28;20081;-75
2022/01/02 05:20:57;;;;;;;0.20;0.20;;;6.10;85.70;;;;;;4993724;28;20077;-75
2022/01/02 05:23:23;;;;;;;0.20;0.20;;;6.10;85.60;;;;;;4977418;28;20030;-75
2022/01/02 05:25:49;;;;;;;0.20;0.20;;;6.00;85.40;;;;;;4994810;28;20030;-75
2022/01/02 05:28:15;;;;;;;0.20;0.20;;;6.00;86.10;;;;;;4993713;28;20105;-76
2022/01/02 05:30:41;;;;;;;0.20;0.20;;;5.90;86.30;;;;;;4993547;28;20105;-75
2022/01/02 05:33:08;;;;;;;0.20;0.20;;;5.90;86.50;;;;;;4977434;28;20027;-76
2022/01/02 05:35:35;;;;;;;0.20;0.20;;;5.80;86.50;;;;;;4977217;28;20398;-76
2022/01/02 05:38:01;;;;;;;0.20;0.20;;;5.80;87.10;;;;;;4993251;28;20027;-76
2022/01/02 05:40:32;;;;;;;0.30;0.30;;;5.90;86.90;;;;;;4977088;28;20026;-76
2022/01/02 05:43:02;;;;;;;0.30;0.30;;;5.90;86.90;;;;;;4993518;28;20023;-75
2022/01/02 05:45:28;;;;;;;0.20;0.20;;;5.80;86.60;;;;;;4993308;28;20022;-75
2022/01/02 05:47:54;;;;;;;0.30;0.30;;;5.80;87.60;;;;;;4993312;28;20540;-75
2022/01/02 05:50:20;;;;;;;0.30;0.30;;;5.80;87.60;;;;;;4994381;28;20037;-75
2022/01/02 05:52:45;;;;;;;0.20;0.20;;;5.80;88.00;;;;;;4993258;28;20497;-75
2022/01/02 05:55:11;;;;;;;0.30;0.30;;;5.60;88.20;;;;;;4994473;28;20152;-75
2022/01/02 05:57:37;;;;;;;0.30;0.30;;;5.50;88.20;;;;;;4994254;28;20019;-76
2022/01/02 06:00:08;;;;;;;0.20;0.20;;;5.50;88.30;;;;;;4976945;28;20377;-76
2022/01/02 06:02:33;;;;;;;0.20;0.20;;;5.30;89.50;;;;;;4993063;28;20061;-75
2022/01/02 06:05:02;;;;;;;0.30;0.30;;;5.20;89.80;;;;;;4994168;28;20058;-75
2022/01/02 06:07:28;;;;;;;0.20;0.20;;;4.90;90.60;;;;;;4993907;28;20521;-75
2022/01/02 06:09:54;;;;;;;0.20;0.20;;;4.80;91.00;;;;;;4992368;28;20026;-76
2022/01/02 06:12:19;;;;;;;0.40;0.40;;;4.60;91.60;;;;;;4994049;28;20517;-75
2022/01/02 06:14:45;;;;;;;0.30;0.30;;;4.70;91.90;;;;;;4976468;28;20109;-76
2022/01/02 06:17:11;;;;;;;0.20;0.20;;;4.90;91.40;;;;;;4992572;28;20032;-76
2022/01/02 06:19:36;;;;;;;0.20;0.20;;;5.00;90.50;;;;;;4992638;28;20063;-75
2022/01/02 06:22:02;;;;;;;0.20;0.20;;;5.30;89.00;;;;;;4992673;28;20061;-75
2022/01/02 06:24:28;;;;;;;0.20;0.20;;;5.50;87.80;;;;;;4993772;28;20069;-76
2022/01/02 06:26:54;;;;;;;0.20;0.20;;;5.60;86.50;;;;;;4992254;28;20038;-75
2022/01/02 06:29:20;;;;;;;0.20;0.20;;;5.80;85.30;;;;;;5008791;28;20030;-75
2022/01/02 06:31:46;;;;;;;0.20;0.20;;;5.90;84.30;;;;;;4993619;28;20406;-76
2022/01/02 06:34:11;;;;;;;0.30;0.30;;;6.00;84.50;;;;;;4993608;28;20031;-75
2022/01/02 06:36:37;;;;;;;0.20;0.20;;;6.10;83.70;;;;;;4992137;28;20117;-75
2022/01/02 06:39:03;;;;;;;0.30;0.30;;;6.00;83.90;;;;;;4993324;28;20040;-76
2022/01/02 06:41:29;;;;;;;0.20;0.20;;;6.00;84.40;;;;;;4993497;28;20445;-76
2022/01/02 06:43:54;;;;;;;0.30;0.30;;;6.10;84.20;;;;;;4992252;28;20123;-75
2022/01/02 06:46:21;;;;;;;1.15;1.05;;;6.10;83.30;;;;;;4992608;28;20076;-75
2022/01/02 06:48:47;;;;;;;0.20;0.20;;;6.30;81.70;;;;;;5006732;28;20439;-75
2022/01/02 06:51:12;;;;;;;0.30;0.30;;;6.40;80.30;;;;;;5005753;28;20113;-75
2022/01/02 06:53:38;;;;;;;0.30;0.30;;;6.50;79.60;;;;;;4993361;28;20077;-76
2022/01/02 06:56:04;;;;;;;0.20;0.20;;;6.60;78.90;;;;;;4996955;28;20037;-76
2022/01/02 06:58:30;;;;;;;0.30;0.30;;;6.60;78.60;;;;;;4994291;28;20034;-76
2022/01/02 07:00:56;;;;;;;0.20;0.20;;;6.70;78.80;;;;;;4991857;28;20022;-75
2022/01/02 07:03:24;;;;;;;0.20;0.20;;;6.70;78.30;;;;;;4992952;28;20023;-75
2022/01/02 07:05:50;;;;;;;0.30;0.30;;;6.80;78.00;;;;;;4991703;28;20113;-75
2022/01/02 07:08:16;;;;;;;0.38;0.38;;;6.80;77.70;;;;;;4993035;28;20030;-75
2022/01/02 07:10:42;;;;;;;0.30;0.30;;;6.80;77.70;;;;;;4992106;28;20045;-75
2022/01/02 07:13:08;;;;;;;0.30;0.30;;;6.70;78.20;;;;;;4985562;28;20023;-75
2022/01/02 07:15:34;;;;;;;0.30;0.30;;;6.70;78.30;;;;;;4973371;28;20030;-75
2022/01/02 07:18:00;;;;;;;0.50;0.40;;;6.70;77.80;;;;;;4978564;28;20422;-75
2022/01/02 07:20:26;;;;;;;0.35;0.35;;;6.70;77.80;;;;;;4991190;28;20022;-75
2022/01/02 07:22:52;;;;;;;2.72;0.70;;;6.70;78.20;;;;;;4992317;28;20034;-75
2022/01/02 07:25:18;;;;;;;0.20;0.20;;;6.70;78.00;;;;;;4992789;28;20430;-75
2022/01/02 07:27:44;;;;;;;1.45;0.95;;;6.70;77.80;;;;;;4992598;28;20478;-76
2022/01/02 07:30:10;;;;;;;0.20;0.20;;;6.70;78.60;;;;;;4992561;28;20404;-76
2022/01/02 07:32:37;;;;;;;0.20;0.20;;;6.80;77.80;;;;;;4991333;28;20063;-75
2022/01/02 07:35:06;;;;;;;0.30;0.30;;;6.80;78.50;;;;;;4990894;28;20023;-75
2022/01/02 07:37:33;;;;;;;0.25;0.25;;;6.70;78.50;;;;;;5005969;28;20054;-76
2022/01/02 07:39:59;;;;;;;0.20;0.20;;;6.80;79.10;;;;;;4989712;28;20110;-76
2022/01/02 07:42:25;;;;;;;0.20;0.20;;;6.70;79.30;;;;;;4974037;28;20134;-75
2022/01/02 07:44:51;;;;;;;0.22;0.22;;;6.80;78.70;;;;;;4992311;28;20023;-75
2022/01/02 07:47:17;;;;;;;0.20;0.20;;;6.90;78.30;;;;;;4991158;28;20101;-75
2022/01/02 07:49:42;;;;;;;0.55;0.40;;;7.00;77.30;;;;;;4991337;28;20022;-75
2022/01/02 07:52:08;;;;;;;0.20;0.20;;;7.10;76.90;;;;;;4975432;28;20030;-76
2022/01/02 07:54:34;;;;;;;0.20;0.20;;;7.40;75.40;;;;;;4975106;28;20113;-75
2022/01/02 07:57:00;;;;;;;0.57;0.38;;;7.60;74.40;;;;;;4990949;28;20027;-76
2022/01/02 07:59:26;;;;;;;0.40;0.40;;;7.70;73.40;;;;;;4991073;28;20049;-76
2022/01/02 08:01:51;;;;;;;0.25;0.25;;;7.90;72.40;;;;;;4992277;28;20022;-76
2022/01/02 08:04:18;;;;;;;0.38;0.38;;;8.00;73.00;;;;;;4991249;28;20030;-76
2022/01/02 08:06:45;;;;;;;0.20;0.20;;;8.10;72.40;;;;;;4992467;28;20026;-77
2022/01/02 08:09:11;;;;;;;0.20;0.20;;;8.10;72.20;;;;;;4991561;28;20030;-76
2022/01/02 08:11:36;;;;;;;0.20;0.20;;;8.30;72.60;;;;;;4992736;28;20409;-76
2022/01/02 08:14:02;;;;;;;0.20;0.20;;;8.30;72.30;;;;;;4991708;28;20497;-75
2022/01/02 08:16:28;;;;;;;0.20;0.20;;;8.40;72.60;;;;;;4990842;28;20026;-76
2022/01/02 08:18:54;;;;;;;0.22;0.22;;;8.40;73.00;;;;;;4991637;28;20029;-76
2022/01/02 08:21:19;;;;;;;0.40;0.40;;;8.60;73.50;;;;;;4992365;28;20030;-76
2022/01/02 08:23:45;;;;;;;0.30;0.30;;;8.60;72.70;;;;;;4991069;28;20430;-76
2022/01/02 08:26:11;;;;;;;0.30;0.30;;;8.70;72.10;;;;;;4991962;28;20053;-76
2022/01/02 08:28:37;;;;;;;0.20;0.20;;;8.70;71.90;;;;;;5006160;28;20026;-76
2022/01/02 08:31:02;;;;;;;0.13;0.13;;;8.80;72.00;;;;;;5007291;28;20152;-75
2022/01/02 08:33:29;;;;;;;0.20;0.20;;;8.80;72.90;;;;;;4994527;28;20022;-75
2022/01/02 08:35:55;;;;;;;0.20;0.20;;;8.80;72.70;;;;;;4994332;28;20084;-76
2022/01/02 08:38:21;;;;;;;0.55;0.52;;;8.90;72.10;;;;;;4994451;28;20026;-75
2022/01/02 08:40:46;;;;;;;0.20;0.20;;;9.00;72.40;;;;;;4994394;28;20545;-76
2022/01/02 08:43:12;;;;;;;1.48;0.95;;;9.00;72.50;;;;;;4994362;28;20018;-76
2022/01/02 08:45:38;;;;;;;0.50;0.50;;;8.90;72.70;;;;;;4994564;28;20073;-76
2022/01/02 08:48:05;;;;;;;0.25;0.25;;;9.00;72.90;;;;;;4995621;28;20118;-76
2022/01/02 08:50:31;;;;;;;0.20;0.20;;;8.90;73.00;;;;;;4978080;28;20027;-76
2022/01/02 08:52:57;;;;;;;0.20;0.20;;;8.90;73.80;;;;;;4994225;28;20478;-76
2022/01/02 08:55:23;;;;;;;0.20;0.20;;;8.80;74.90;;;;;;4994155;28;20022;-76
2022/01/02 08:57:49;;;;;;;0.20;0.20;;;8.70;75.30;;;;;;4993987;28;20034;-76
2022/01/02 09:00:16;;;;;;;0.10;0.10;;;8.70;75.10;;;;;;4995203;28;20062;-76
2022/01/02 09:02:41;;;;;;;0.20;0.20;;;8.70;75.30;;;;;;4994170;28;20382;-75
2022/01/02 09:05:08;;;;;;;0.20;0.20;;;8.80;75.40;;;;;;4995331;28;20026;-75
2022/01/02 09:07:35;;;;;;;1.30;0.57;;;8.80;74.80;;;;;;4977426;28;20049;-76
2022/01/02 09:10:00;;;;;;;0.20;0.20;;;8.90;74.10;;;;;;5010203;28;20054;-76
2022/01/02 09:12:26;;;;;;;0.20;0.20;;;8.90;73.50;;;;;;4993753;28;20069;-76
2022/01/02 09:14:52;;;;;;;0.20;0.20;;;9.00;73.10;;;;;;4993933;28;20033;-76
2022/01/02 09:17:18;;;;;;;0.20;0.20;;;9.10;73.30;;;;;;4993526;28;20040;-76
2022/01/02 09:19:44;;;;;;;0.20;0.20;;;9.30;72.90;;;;;;4994996;28;20036;-76
2022/01/02 09:22:10;;;;;;;0.20;0.20;;;9.30;72.40;;;;;;4994860;28;20097;-76
2022/01/02 09:24:36;;;;;;;0.22;0.22;;;9.40;72.20;;;;;;4995315;28;20083;-76
2022/01/02 09:27:01;;;;;;;0.20;0.20;;;9.50;71.30;;;;;;4993516;28;20030;-75
2022/01/02 09:29:28;;;;;;;0.43;0.43;;;9.50;71.50;;;;;;4994367;28;20041;-76
2022/01/02 09:31:53;;;;;;;0.10;0.10;;;9.60;71.00;;;;;;4993508;28;20027;-76
2022/01/02 09:34:19;;;;;;;2.05;0.95;;;9.60;72.40;;;;;;4993486;28;20117;-76
2022/01/02 09:36:45;;;;;;;0.20;0.20;;;9.70;75.10;;;;;;4994359;28;20023;-76
2022/01/02 09:39:11;;;;;;;0.65;0.40;;;9.80;74.20;;;;;;5009839;28;20023;-76
2022/01/02 09:41:39;;;;;;;0.20;0.20;;;10.00;72.40;;;;;;4994707;28;20406;-76
2022/01/02 09:44:05;;;;;;;0.20;0.20;;;9.90;73.30;;;;;;4992659;28;20018;-76
2022/01/02 09:46:32;;;;;;;0.20;0.20;;;9.60;72.60;;;;;;4994345;28;20033;-76
2022/01/02 09:48:57;;;;;;;0.20;0.20;;;9.50;73.20;;;;;;4994362;28;20434;-75
2022/01/02 09:51:26;;;;;;;0.20;0.20;;;9.70;72.90;;;;;;4994395;28;20058;-76
2022/01/02 09:53:53;;;;;;;0.20;0.20;;;10.30;71.20;;;;;;4993166;28;20030;-76
2022/01/02 09:56:19;;;;;;;0.45;0.45;;;10.60;68.10;;;;;;4976597;28;20026;-76
2022/01/02 09:58:45;;;;;;;0.20;0.20;;;10.80;67.10;;;;;;5009140;28;20442;-76
2022/01/02 10:01:19;;;;;;;0.73;0.73;;;11.00;67.00;;;;;;4992922;28;20026;-76
2022/01/02 10:03:47;;;;;;;0.20;0.20;;;11.30;65.60;;;;;;4992780;28;20053;-76
2022/01/02 10:06:13;;;;;;;0.20;0.20;;;11.70;65.20;;;;;;4993951;28;20054;-76
2022/01/02 10:08:39;;;;;;;0.20;0.20;;;12.10;63.20;;;;;;4992833;28;20038;-76
2022/01/02 10:11:16;;;;;;;1.27;0.63;;;12.50;61.50;;;;;;4994223;28;20022;-76
2022/01/02 10:13:43;;;;;;;0.65;0.20;;;12.60;61.00;;;;;;4994169;28;20368;-76
2022/01/02 10:16:23;;;;;;;0.10;0.10;;;13.30;60.00;;;;;;4993665;28;20433;-76
2022/01/02 10:18:51;;;;;;;0.20;0.20;;;13.70;59.40;;;;;;4992770;28;20034;-75
2022/01/02 10:21:38;;;;;;;0.10;0.10;;;13.70;59.80;;;;;;4992679;28;20491;-76
2022/01/02 10:24:22;;;;;;;0.10;0.10;;;14.40;58.50;;;;;;4992645;28;20022;-76
2022/01/02 10:27:13;;;;;;;0.10;0.10;;;14.90;57.00;;;;;;4992335;28;20030;-76
2022/01/02 10:29:41;;;;;;;0.10;0.10;;;15.30;56.00;;;;;;4995518;28;20023;-77
2022/01/02 10:32:26;;;;;;;0.10;0.10;;;15.90;54.70;;;;;;4996936;28;20041;-77
2022/01/02 10:34:53;;;;;;;0.10;0.10;;;16.40;55.30;;;;;;4980988;28;20482;-77
2022/01/02 10:37:23;;;;;;;0.10;0.10;;;16.80;54.80;;;;;;4996267;28;20058;-77
2022/01/02 10:39:49;;;;;;;0.10;0.10;;;17.30;53.60;;;;;;4997736;28;20046;-77
2022/01/02 10:42:17;;;;;;;0.10;0.10;;;17.10;48.50;;;;;;4996424;28;20470;-77
2022/01/02 10:44:42;;;;;;;0.10;0.10;;;17.40;50.60;;;;;;4996978;28;20030;-78
2022/01/02 10:47:09;;;;;;;0.10;0.10;;;17.70;48.40;;;;;;4997906;28;20026;-77
2022/01/02 10:50:02;;;;;;;0.20;0.20;;;17.80;44.40;;;;;;4998225;28;20394;-77
2022/01/02 10:52:40;;;;;;;0.10;0.10;;;18.00;44.10;;;;;;4998182;28;20052;-77
2022/01/02 10:55:16;;;;;;;0.10;0.10;;;18.30;48.10;;;;;;4996878;28;20441;-77
2022/01/02 10:57:43;;;;;;;0.10;0.10;;;18.40;47.00;;;;;;4998358;28;20080;-77
2022/01/02 11:00:10;;;;;;;0.03;0.03;;;18.50;48.50;;;;;;4996393;28;20022;-77
2022/01/02 11:02:38;;;;;;;0.10;0.10;;;18.70;46.30;;;;;;4996988;28;20381;-77
2022/01/02 11:05:10;;;;;;;0.70;0.32;;;18.50;42.90;;;;;;4996211;28;20105;-77
2022/01/02 11:07:39;;;;;;;;;;;18.50;42.00;;;;;;4979854;28;20030;-77
2022/01/02 11:10:05;;;;;;;0.10;0.10;;;18.40;42.30;;;;;;4980364;28;19906;-77
2022/01/02 11:12:31;;;;;;;0.10;0.10;;;18.60;41.30;;;;;;4996709;28;20421;-77
2022/01/02 11:14:58;;;;;;;0.10;0.10;;;18.80;41.60;;;;;;4997618;28;20479;-77
2022/01/02 11:17:24;;;;;;;0.00;0.00;;;18.70;40.10;;;;;;4980285;28;20258;-77
2022/01/02 11:19:50;;;;;;;0.10;0.10;;;18.80;40.50;;;;;;4997729;28;20027;-77
2022/01/02 11:22:31;;;;;;;0.10;0.10;;;18.90;40.20;;;;;;4996105;28;20023;-77
2022/01/02 11:25:22;;;;;;;0.10;0.10;;;18.60;40.50;;;;;;4997455;28;20482;-77
2022/01/02 11:27:58;;;;;;;0.10;0.10;;;18.30;40.70;;;;;;4997429;28;20037;-77
2022/01/02 11:30:30;;;;;;;0.10;0.10;;;18.50;42.50;;;;;;4996096;28;20564;-77
2022/01/02 11:33:13;;;;;;;0.10;0.10;;;18.50;42.40;;;;;;4997252;28;20027;-77
2022/01/02 11:35:42;;;;;;;0.00;0.00;;;18.40;41.60;;;;;;4997163;28;20077;-77
2022/01/02 11:38:08;;;;;;;0.17;0.17;;;18.40;41.50;;;;;;4979828;28;20073;-77
2022/01/02 11:40:54;;;;;;;0.30;0.20;;;18.40;41.10;;;;;;4996328;28;20478;-77
2022/01/02 11:43:35;;;;;;;0.03;0.03;;;18.20;41.20;;;;;;4995984;28;20094;-77
2022/01/02 11:46:26;;;;;;;0.20;0.20;;;18.20;40.90;;;;;;4995786;28;20119;-77
2022/01/02 11:49:05;;;;;;;0.38;0.38;;;18.10;41.20;;;;;;4997492;28;20105;-77
2022/01/02 11:51:51;;;;;;;0.10;0.10;;;18.10;41.60;;;;;;4997303;28;20031;-77
2022/01/02 11:54:30;;;;;;;0.08;0.08;;;18.50;43.50;;;;;;4995870;28;20112;-76
2022/01/02 11:57:01;;;;;;;0.10;0.10;;;18.80;43.00;;;;;;4997005;28;20073;-77
2022/01/02 11:59:38;;;;;;;0.10;0.10;;;18.40;43.40;;;;;;4995116;28;20019;-77
2022/01/02 12:02:13;;;;;;;0.10;0.10;;;18.50;45.80;;;;;;4997220;28;20026;-77
2022/01/02 12:05:12;;;;;;;5.22;0.63;;;18.30;47.70;;;;;;4996429;28;20430;-77
2022/01/02 12:07:42;;;;;;;0.95;0.30;;;17.40;45.50;;;;;;4988402;28;20053;-77
2022/01/02 12:10:16;;;;;;;0.20;0.20;;;16.90;44.00;;;;;;4999339;28;20026;-77
2022/01/02 12:13:20;;;;;;;0.20;0.20;;;16.30;43.90;;;;;;4999166;28;20034;-77
2022/01/02 12:15:46;;;;;;;0.20;0.20;;;16.10;43.90;;;;;;4996661;28;20036;-77
2022/01/02 12:18:27;;;;;;;0.38;0.38;;;15.90;44.70;;;;;;5000775;28;20061;-76
2022/01/02 12:20:53;;;;;;;2.73;0.20;;;15.70;45.20;;;;;;4982514;28;20117;-77
2022/01/02 12:23:33;;;;;;;0.10;0.10;;;15.60;44.90;;;;;;4999143;28;20085;-77
2022/01/02 12:26:08;;;;;;;0.08;0.08;;;15.50;45.70;;;;;;4981880;28;20100;-77
2022/01/02 12:28:38;;;;;;;0.10;0.10;;;15.40;46.40;;;;;;4998515;28;20022;-77
2022/01/02 12:31:05;;;;;;;0.25;0.20;;;15.30;46.20;;;;;;5000019;28;20406;-77
2022/01/02 12:33:32;;;;;;;0.10;0.10;;;15.20;46.30;;;;;;4999644;28;20026;-77
2022/01/02 12:36:08;;;;;;;0.10;0.10;;;15.20;47.00;;;;;;4999244;28;20014;-77
2022/01/02 12:38:51;;;;;;;0.10;0.10;;;15.10;47.00;;;;;;4999776;28;20397;-77
2022/01/02 12:41:23;;;;;;;1.38;0.68;;;15.10;48.20;;;;;;5014918;28;20018;-77
2022/01/02 12:43:59;;;;;;;0.52;0.52;;;15.00;48.20;;;;;;4998281;28;20455;-77
2022/01/02 12:46:37;;;;;;;0.10;0.10;;;14.90;48.20;;;;;;4999938;28;20410;-77
2022/01/02 12:49:05;;;;;;;0.10;0.10;;;14.90;48.90;;;;;;4997725;28;20026;-77
2022/01/02 12:51:32;;;;;;;0.20;0.20;;;14.90;48.60;;;;;;4999712;28;20026;-77
2022/01/02 12:54:10;;;;;;;0.10;0.10;;;14.90;48.80;;;;;;4998167;28;20033;-77
2022/01/02 12:56:41;;;;;;;0.10;0.10;;;14.90;49.10;;;;;;4999179;28;20027;-77
2022/01/02 12:59:18;;;;;;;0.10;0.10;;;14.90;48.80;;;;;;4998802;28;20030;-77
2022/01/02 13:01:50;;;;;;;0.10;0.10;;;14.90;48.80;;;;;;4997577;28;20368;-76
2022/01/02 13:04:17;;;;;;;0.20;0.20;;;14.90;49.30;;;;;;4998980;28;20097;-77
2022/01/02 13:06:51;;;;;;;0.15;0.15;;;14.90;48.90;;;;;;4981269;28;20035;-77
2022/01/02 13:09:22;;;;;;;0.30;0.30;;;15.00;49.00;;;;;;4997503;28;20131;-77
2022/01/02 13:11:49;;;;;;;0.10;0.10;;;15.20;48.50;;;;;;4997553;28;20042;-77
2022/01/02 13:14:32;;;;;;;0.40;0.40;;;15.30;49.00;;;;;;4997743;28;20509;-77